Time;durP1;ratioP1;P1;durP2;ratioP2;P2;SDS_P1;SDS_P2;PMS_P1;PMS_P2;Temp;Humidity;BMP_temperature;BMP_pressure;BME280_temperature;BME280_humidity;BME280_pressure;Samples;Min_cycle;Max_cycle;Signal;HPM_P1;HPM_P2
2021/12/23 00:00:35;;;;;;;27.52;13.40;;;1.70;87.80;;;;;;4956152;28;20013;-77
2021/12/23 00:03:01;;;;;;;27.67;14.52;;;1.80;88.20;;;;;;4956109;28;20450;-77
2021/12/23 00:05:27;;;;;;;31.75;15.38;;;1.70;88.00;;;;;;4955497;28;20019;-77
2021/12/23 00:07:52;;;;;;;28.58;13.10;;;1.60;87.80;;;;;;4952284;28;20019;-77
2021/12/23 00:10:18;;;;;;;28.73;14.07;;;1.70;88.30;;;;;;4957329;28;20047;-77
2021/12/23 00:12:46;;;;;;;31.73;16.00;;;1.70;88.30;;;;;;4955876;28;20038;-76
2021/12/23 00:15:31;;;;;;;34.28;15.40;;;1.60;88.10;;;;;;4955839;28;20031;-77
2021/12/23 00:18:02;;;;;;;30.52;16.05;;;1.60;88.20;;;;;;4956009;28;20507;-77
2021/12/23 00:23:26;;;;;;;31.25;15.07;;;1.50;88.60;;;;;;4936964;28;20114;-77
2021/12/23 00:25:55;;;;;;;34.83;16.38;;;1.50;89.10;;;;;;4952177;28;20035;-77
2021/12/23 00:28:21;;;;;;;29.10;14.10;;;1.60;88.60;;;;;;4956480;28;20019;-77
2021/12/23 00:30:47;;;;;;;26.77;14.13;;;1.50;89.50;;;;;;4955768;28;20412;-77
2021/12/23 00:33:13;;;;;;;25.85;13.30;;;1.60;88.90;;;;;;4955500;28;20031;-77
2021/12/23 00:35:38;;;;;;;22.88;11.65;;;1.60;88.70;;;;;;4954687;28;20050;-77
2021/12/23 00:38:13;;;;;;;28.70;15.35;;;1.60;88.70;;;;;;4951769;28;20035;-76
2021/12/23 00:40:39;;;;;;;26.63;12.80;;;1.70;88.60;;;;;;4954567;28;20019;-76
2021/12/23 00:43:04;;;;;;;29.73;14.70;;;1.70;88.60;;;;;;4956694;28;20039;-77
2021/12/23 00:45:30;;;;;;;32.00;14.35;;;1.70;88.30;;;;;;4955761;28;20059;-76
2021/12/23 00:47:56;;;;;;;28.58;14.02;;;1.60;88.50;;;;;;4955588;28;20496;-77
2021/12/23 00:50:21;;;;;;;32.22;14.93;;;1.50;88.80;;;;;;4954205;28;20023;-77
2021/12/23 00:52:54;;;;;;;26.35;12.95;;;1.60;88.90;;;;;;4951888;28;20142;-77
2021/12/23 00:55:20;;;;;;;23.85;12.30;;;1.60;89.10;;;;;;4957311;28;20035;-76
2021/12/23 00:57:46;;;;;;;33.25;15.88;;;1.60;88.80;;;;;;4955223;28;20082;-77
2021/12/23 01:00:18;;;;;;;26.80;12.77;;;1.60;89.00;;;;;;4952503;28;20556;-76
2021/12/23 01:02:45;;;;;;;30.35;14.45;;;1.60;88.80;;;;;;4948917;28;20029;-77
2021/12/23 01:05:13;;;;;;;27.10;13.30;;;1.60;88.90;;;;;;4966279;28;20494;-76
2021/12/23 01:07:39;;;;;;;26.63;12.77;;;1.50;89.00;;;;;;4953977;28;20499;-77
2021/12/23 01:10:06;;;;;;;27.17;14.35;;;1.60;89.00;;;;;;4956074;28;20055;-77
2021/12/23 01:12:43;;;;;;;31.17;15.85;;;1.60;89.00;;;;;;4955039;28;20044;-77
2021/12/23 01:15:16;;;;;;;28.65;14.18;;;1.50;89.20;;;;;;4954938;28;20036;-77
2021/12/23 01:18:06;;;;;;;28.13;14.10;;;1.50;88.90;;;;;;4952175;28;20376;-77
2021/12/23 01:20:36;;;;;;;26.58;13.40;;;1.60;89.50;;;;;;4955077;28;20088;-76
2021/12/23 01:23:10;;;;;;;31.27;14.90;;;1.50;89.30;;;;;;4935677;28;20027;-77
2021/12/23 01:25:38;;;;;;;27.48;13.75;;;1.50;89.00;;;;;;4954877;28;20031;-77
2021/12/23 01:28:06;;;;;;;24.60;13.38;;;1.50;89.30;;;;;;4955886;28;20078;-77
2021/12/23 01:30:32;;;;;;;33.40;16.08;;;1.50;89.10;;;;;;4954970;28;20081;-77
2021/12/23 01:32:58;;;;;;;24.50;13.57;;;1.60;89.10;;;;;;4954624;28;20037;-77
2021/12/23 01:35:26;;;;;;;30.77;14.98;;;1.60;88.90;;;;;;4953813;28;20456;-77
2021/12/23 01:37:52;;;;;;;27.27;12.73;;;1.60;88.90;;;;;;4950973;28;20094;-77
2021/12/23 01:40:20;;;;;;;29.25;14.80;;;1.60;88.90;;;;;;4956898;28;20024;-77
2021/12/23 01:42:46;;;;;;;32.22;15.52;;;1.50;89.00;;;;;;4954769;28;20205;-76
2021/12/23 01:45:15;;;;;;;31.38;15.40;;;1.50;89.10;;;;;;4954593;28;20023;-77
2021/12/23 01:47:41;;;;;;;30.58;15.10;;;1.50;89.30;;;;;;4954565;28;20118;-77
2021/12/23 01:50:09;;;;;;;25.05;13.15;;;1.50;89.30;;;;;;4950911;28;20034;-77
2021/12/23 01:52:35;;;;;;;30.23;15.07;;;1.60;89.40;;;;;;4953589;28;20035;-76
2021/12/23 01:55:02;;;;;;;26.48;12.85;;;1.60;89.30;;;;;;4955153;28;20023;-77
2021/12/23 01:57:31;;;;;;;29.75;13.88;;;1.70;89.30;;;;;;4954475;28;20031;-77
2021/12/23 01:59:58;;;;;;;25.85;12.68;;;1.80;89.50;;;;;;4954401;28;20028;-77
2021/12/23 02:02:25;;;;;;;29.80;14.57;;;1.70;89.40;;;;;;4953379;28;20038;-77
2021/12/23 02:04:51;;;;;;;32.85;15.35;;;1.70;89.20;;;;;;4950776;28;20396;-77
2021/12/23 02:07:18;;;;;;;27.05;13.48;;;1.70;89.30;;;;;;4956502;28;20072;-77
2021/12/23 02:09:43;;;;;;;23.63;11.95;;;1.80;89.20;;;;;;4953942;28;20051;-76
2021/12/23 02:12:10;;;;;;;24.40;12.13;;;1.80;89.10;;;;;;4954225;28;20031;-77
2021/12/23 02:14:35;;;;;;;27.80;13.77;;;1.90;89.00;;;;;;4954213;28;20062;-77
2021/12/23 02:17:01;;;;;;;25.83;13.48;;;2.00;88.80;;;;;;4950106;28;20051;-77
2021/12/23 02:19:27;;;;;;;25.50;12.50;;;2.00;88.50;;;;;;4955754;28;20480;-77
2021/12/23 02:21:53;;;;;;;30.17;13.63;;;2.00;88.70;;;;;;4954031;28;20114;-77
2021/12/23 02:24:19;;;;;;;26.05;12.80;;;2.00;88.80;;;;;;4954137;28;20055;-77
2021/12/23 02:26:45;;;;;;;30.70;14.35;;;2.00;88.70;;;;;;4953952;28;20384;-76
2021/12/23 02:29:11;;;;;;;36.15;18.08;;;2.00;88.90;;;;;;4949825;28;20464;-77
2021/12/23 02:31:37;;;;;;;31.23;15.32;;;2.10;88.40;;;;;;4953563;28;20032;-77
2021/12/23 02:34:03;;;;;;;28.00;14.50;;;2.00;88.40;;;;;;4954495;28;20401;-77
2021/12/23 02:36:30;;;;;;;28.10;15.18;;;2.10;88.80;;;;;;4953884;28;20563;-77
2021/12/23 02:38:59;;;;;;;31.25;15.52;;;2.10;88.60;;;;;;4954116;28;20416;-77
2021/12/23 02:41:26;;;;;;;27.30;14.13;;;2.10;88.80;;;;;;4952916;28;20109;-77
2021/12/23 02:43:51;;;;;;;28.00;13.90;;;2.10;89.70;;;;;;4950431;28;20035;-77
2021/12/23 02:46:19;;;;;;;26.17;13.18;;;2.10;88.80;;;;;;4955758;28;20039;-77
2021/12/23 02:48:46;;;;;;;21.80;10.80;;;2.20;88.80;;;;;;4951326;28;20039;-77
2021/12/23 02:51:14;;;;;;;25.90;13.32;;;2.30;88.90;;;;;;4953729;28;20027;-77
2021/12/23 02:53:41;;;;;;;28.08;13.70;;;2.20;88.80;;;;;;4953514;28;20553;-77
2021/12/23 02:56:11;;;;;;;22.50;11.40;;;2.20;88.70;;;;;;4950374;28;20074;-77
2021/12/23 02:58:37;;;;;;;27.77;14.40;;;2.30;89.00;;;;;;4953504;28;20134;-77
2021/12/23 03:01:06;;;;;;;25.60;14.23;;;2.30;88.70;;;;;;4954413;28;20080;-77
2021/12/23 03:03:31;;;;;;;27.27;14.27;;;2.30;88.60;;;;;;4953357;28;20496;-77
2021/12/23 03:05:59;;;;;;;26.33;13.25;;;2.30;88.80;;;;;;4956995;28;20038;-77
2021/12/23 03:08:36;;;;;;;27.40;13.75;;;2.40;89.00;;;;;;4956000;28;20023;-77
2021/12/23 03:11:04;;;;;;;24.77;12.48;;;2.30;88.50;;;;;;4937991;28;20166;-77
2021/12/23 03:13:30;;;;;;;25.00;12.55;;;2.40;88.60;;;;;;4958107;28;20035;-76
2021/12/23 03:15:56;;;;;;;31.25;16.10;;;2.30;88.70;;;;;;4956908;28;20019;-77
2021/12/23 03:18:22;;;;;;;25.52;12.43;;;2.30;88.90;;;;;;4956548;28;20031;-76
2021/12/23 03:20:47;;;;;;;28.40;13.18;;;2.40;89.30;;;;;;4957133;28;20510;-77
2021/12/23 03:23:13;;;;;;;27.33;13.25;;;2.40;88.80;;;;;;4954235;28;20043;-77
2021/12/23 03:25:39;;;;;;;22.85;11.85;;;2.40;89.00;;;;;;4955961;28;20027;-77
2021/12/23 03:28:04;;;;;;;21.05;10.68;;;2.40;89.00;;;;;;4957766;28;20455;-77
2021/12/23 03:30:30;;;;;;;23.33;11.63;;;2.50;89.00;;;;;;4956704;28;20027;-77
2021/12/23 03:32:56;;;;;;;27.38;12.10;;;2.60;89.70;;;;;;4956300;28;20130;-77
2021/12/23 03:35:22;;;;;;;23.48;11.50;;;2.60;88.80;;;;;;4955296;28;20537;-77
2021/12/23 03:37:47;;;;;;;24.42;11.68;;;2.70;88.80;;;;;;4953849;28;20074;-77
2021/12/23 03:40:13;;;;;;;24.42;12.02;;;2.70;88.70;;;;;;4958292;28;20490;-77
2021/12/23 03:42:39;;;;;;;27.70;13.77;;;2.70;88.30;;;;;;4956419;28;20031;-77
2021/12/23 03:45:07;;;;;;;23.73;12.20;;;2.70;88.50;;;;;;4956548;28;20054;-77
2021/12/23 03:47:34;;;;;;;23.58;12.10;;;2.60;88.40;;;;;;4956149;28;20068;-77
2021/12/23 03:50:00;;;;;;;24.33;10.85;;;2.70;88.60;;;;;;4952145;28;20024;-77
2021/12/23 03:52:26;;;;;;;28.73;13.63;;;2.70;88.40;;;;;;4958044;28;20465;-77
2021/12/23 03:54:51;;;;;;;25.60;12.68;;;2.70;88.40;;;;;;4956405;28;20039;-77
2021/12/23 03:57:17;;;;;;;26.52;13.50;;;2.70;88.80;;;;;;4956421;28;20023;-77
2021/12/23 03:59:43;;;;;;;22.33;11.45;;;2.70;88.80;;;;;;4956094;28;20113;-77
2021/12/23 04:02:09;;;;;;;23.20;12.15;;;2.70;88.80;;;;;;4952843;28;20100;-77
2021/12/23 04:04:34;;;;;;;21.58;10.68;;;2.70;89.00;;;;;;4956294;28;20106;-77
2021/12/23 04:07:00;;;;;;;25.65;12.90;;;2.80;89.10;;;;;;4956838;28;20173;-77
2021/12/23 04:09:26;;;;;;;23.23;12.25;;;2.70;89.00;;;;;;4955993;28;20563;-77
2021/12/23 04:11:52;;;;;;;25.85;13.45;;;2.80;89.00;;;;;;4955987;28;20138;-77
2021/12/23 04:14:17;;;;;;;25.00;12.93;;;2.70;88.80;;;;;;4953906;28;20046;-77
2021/12/23 04:16:43;;;;;;;19.75;10.13;;;2.80;89.30;;;;;;4953392;28;20376;-77
2021/12/23 04:19:11;;;;;;;26.67;14.10;;;2.80;88.80;;;;;;4957552;28;20066;-77
2021/12/23 04:21:37;;;;;;;23.17;11.73;;;2.80;88.80;;;;;;4955830;28;20031;-77
2021/12/23 04:24:03;;;;;;;25.63;12.77;;;2.80;89.20;;;;;;4953200;28;20038;-77
2021/12/23 04:26:29;;;;;;;25.38;12.25;;;2.80;89.00;;;;;;4955398;28;20026;-77
2021/12/23 04:28:55;;;;;;;23.98;12.15;;;2.80;89.10;;;;;;4951772;28;20027;-77
2021/12/23 04:31:23;;;;;;;29.20;14.70;;;2.90;89.00;;;;;;4957298;28;20487;-78
2021/12/23 04:33:52;;;;;;;25.45;12.80;;;2.80;89.00;;;;;;4955613;28;20487;-77
2021/12/23 04:36:18;;;;;;;23.67;12.73;;;2.80;89.20;;;;;;4955872;28;20075;-77
2021/12/23 04:38:45;;;;;;;23.23;12.18;;;2.90;89.20;;;;;;4955634;28;20027;-77
2021/12/23 04:41:12;;;;;;;21.73;11.77;;;2.90;89.20;;;;;;4951496;28;20561;-77
2021/12/23 04:43:38;;;;;;;19.27;10.52;;;2.90;89.30;;;;;;4952808;28;20053;-77
2021/12/23 04:46:05;;;;;;;28.23;13.85;;;2.90;89.30;;;;;;4956835;28;20024;-78
2021/12/23 04:48:32;;;;;;;16.98;10.00;;;3.00;89.30;;;;;;4960675;28;20031;-78
2021/12/23 04:50:58;;;;;;;24.10;11.65;;;3.00;89.40;;;;;;4947962;28;20050;-77
2021/12/23 04:53:24;;;;;;;19.05;10.60;;;3.10;89.30;;;;;;4954242;28;20055;-77
2021/12/23 04:55:50;;;;;;;19.52;10.68;;;3.00;88.80;;;;;;4952317;28;20500;-78
2021/12/23 04:58:16;;;;;;;28.80;14.15;;;3.00;88.90;;;;;;4957379;28;20038;-77
2021/12/23 05:00:47;;;;;;;19.80;10.77;;;3.00;88.90;;;;;;4954840;28;20035;-77
2021/12/23 05:03:13;;;;;;;22.70;11.18;;;3.10;89.40;;;;;;4955151;28;20476;-77
2021/12/23 05:05:38;;;;;;;19.05;9.95;;;3.10;89.20;;;;;;4955241;28;20030;-77
2021/12/23 05:08:04;;;;;;;25.27;12.88;;;3.10;89.30;;;;;;4951472;28;20028;-77
2021/12/23 05:10:30;;;;;;;18.73;10.38;;;3.10;88.90;;;;;;4956440;28;20043;-77
2021/12/23 05:12:56;;;;;;;25.10;12.15;;;3.10;89.00;;;;;;4955320;28;20039;-77
2021/12/23 05:15:21;;;;;;;24.02;11.45;;;3.10;89.30;;;;;;4954756;28;20553;-77
2021/12/23 05:17:48;;;;;;;20.00;10.75;;;3.10;90.00;;;;;;4955136;28;20085;-76
2021/12/23 05:20:16;;;;;;;21.25;10.63;;;3.10;89.30;;;;;;4952807;28;20027;-76
2021/12/23 05:22:42;;;;;;;25.30;12.75;;;3.20;89.70;;;;;;4953286;28;20032;-76
2021/12/23 05:25:09;;;;;;;22.52;11.00;;;3.10;89.30;;;;;;4956659;28;20031;-76
2021/12/23 05:27:35;;;;;;;20.30;11.25;;;3.10;89.40;;;;;;4953798;28;20015;-76
2021/12/23 05:30:01;;;;;;;21.80;11.80;;;3.10;89.50;;;;;;4954936;28;20384;-76
2021/12/23 05:32:28;;;;;;;23.55;11.05;;;3.20;89.70;;;;;;4953896;28;20149;-75
2021/12/23 05:34:54;;;;;;;23.77;12.32;;;3.20;89.60;;;;;;4948056;28;20531;-76
2021/12/23 05:37:19;;;;;;;26.98;12.57;;;3.10;89.90;;;;;;4956702;28;20023;-76
2021/12/23 05:39:45;;;;;;;20.00;10.60;;;3.20;89.80;;;;;;4942823;28;20435;-75
2021/12/23 05:42:11;;;;;;;23.50;11.70;;;3.20;90.00;;;;;;4949614;28;20423;-76
2021/12/23 05:44:36;;;;;;;20.67;11.55;;;3.20;90.00;;;;;;4952376;28;20033;-75
2021/12/23 05:47:03;;;;;;;19.35;10.80;;;3.30;90.00;;;;;;4949637;28;20111;-74
2021/12/23 05:49:28;;;;;;;19.85;9.85;;;3.30;89.80;;;;;;4956412;28;20031;-75
2021/12/23 05:51:54;;;;;;;22.00;11.98;;;3.30;90.00;;;;;;4954264;28;20035;-75
2021/12/23 05:54:19;;;;;;;19.63;10.60;;;3.30;90.00;;;;;;4954791;28;20504;-75
2021/12/23 05:56:45;;;;;;;18.80;9.70;;;3.40;90.00;;;;;;4954080;28;20430;-76
2021/12/23 05:59:11;;;;;;;23.52;12.50;;;3.40;90.00;;;;;;4951594;28;20049;-76
2021/12/23 06:01:37;;;;;;;19.92;10.63;;;3.50;90.00;;;;;;4954569;28;20031;-76
2021/12/23 06:04:03;;;;;;;24.85;12.85;;;3.40;89.90;;;;;;4955215;28;20051;-76
2021/12/23 06:06:29;;;;;;;23.15;10.77;;;3.50;90.00;;;;;;4954543;28;20031;-76
2021/12/23 06:08:54;;;;;;;19.70;10.02;;;3.50;90.00;;;;;;4954295;28;20514;-76
2021/12/23 06:11:21;;;;;;;20.27;10.68;;;3.50;90.10;;;;;;4952159;28;20058;-76
2021/12/23 06:13:47;;;;;;;16.98;9.68;;;3.60;90.20;;;;;;4945989;28;20036;-76
2021/12/23 06:16:14;;;;;;;19.27;10.02;;;3.60;90.30;;;;;;4956314;28;20093;-76
2021/12/23 06:18:40;;;;;;;17.42;8.70;;;3.60;90.40;;;;;;4952661;28;20031;-76
2021/12/23 06:21:05;;;;;;;23.08;12.00;;;3.60;90.20;;;;;;4953967;28;20114;-76
2021/12/23 06:23:31;;;;;;;19.02;10.00;;;3.60;90.30;;;;;;4954048;28;20540;-76
2021/12/23 06:25:57;;;;;;;18.85;9.07;;;3.60;90.30;;;;;;4949568;28;20169;-76
2021/12/23 06:28:23;;;;;;;22.88;10.95;;;3.60;90.30;;;;;;4956040;28;20590;-76
2021/12/23 06:30:49;;;;;;;26.75;12.32;;;3.70;90.30;;;;;;4954216;28;20031;-76
2021/12/23 06:33:15;;;;;;;22.52;11.40;;;3.70;90.30;;;;;;4953963;28;20031;-77
2021/12/23 06:35:40;;;;;;;19.92;11.05;;;3.70;90.40;;;;;;4954223;28;20084;-77
2021/12/23 06:38:09;;;;;;;15.35;9.07;;;3.80;90.50;;;;;;4950475;28;20102;-76
2021/12/23 06:40:36;;;;;;;20.17;10.80;;;3.80;90.50;;;;;;4953772;28;20023;-77
2021/12/23 06:43:02;;;;;;;17.13;9.23;;;3.90;90.40;;;;;;4953311;28;20106;-77
2021/12/23 06:45:27;;;;;;;17.85;9.50;;;4.00;90.50;;;;;;4953992;28;20126;-76
2021/12/23 06:47:53;;;;;;;18.55;9.80;;;3.90;90.60;;;;;;4953900;28;20467;-78
2021/12/23 06:50:21;;;;;;;19.77;10.45;;;4.00;90.50;;;;;;4952127;28;20046;-77
2021/12/23 06:52:47;;;;;;;19.83;10.77;;;4.00;90.50;;;;;;4950935;28;20044;-77
2021/12/23 06:55:13;;;;;;;18.67;9.90;;;4.00;90.50;;;;;;4955378;28;20027;-76
2021/12/23 06:57:41;;;;;;;21.38;11.38;;;4.10;90.50;;;;;;4953597;28;20419;-77
2021/12/23 07:00:10;;;;;;;22.48;11.80;;;4.10;90.80;;;;;;4953664;28;20028;-76
2021/12/23 07:02:39;;;;;;;17.80;10.00;;;4.00;90.70;;;;;;4948800;28;20027;-76
2021/12/23 07:05:06;;;;;;;16.30;9.30;;;4.10;90.80;;;;;;4954662;28;20024;-76
2021/12/23 07:07:40;;;;;;;15.43;8.27;;;4.10;90.70;;;;;;4954727;28;20547;-76
2021/12/23 07:10:08;;;;;;;19.45;10.85;;;4.10;90.80;;;;;;4954139;28;20066;-76
2021/12/23 07:12:33;;;;;;;21.38;11.82;;;4.20;90.80;;;;;;4952268;28;20449;-77
2021/12/23 07:14:59;;;;;;;20.30;10.75;;;4.30;90.70;;;;;;4953616;28;20105;-77
2021/12/23 07:17:25;;;;;;;18.13;9.18;;;4.20;90.80;;;;;;4952593;28;20399;-76
2021/12/23 07:19:51;;;;;;;19.20;10.48;;;4.30;90.80;;;;;;4950096;28;20035;-76
2021/12/23 07:22:16;;;;;;;22.52;11.88;;;4.30;90.60;;;;;;4955344;28;20376;-77
2021/12/23 07:24:42;;;;;;;21.80;11.13;;;4.30;90.60;;;;;;4953013;28;20031;-76
2021/12/23 07:27:09;;;;;;;20.85;11.40;;;4.30;90.80;;;;;;4953334;28;20097;-75
2021/12/23 07:29:35;;;;;;;16.95;10.05;;;4.40;90.70;;;;;;4953558;28;20045;-76
2021/12/23 07:32:03;;;;;;;17.55;9.32;;;4.30;90.90;;;;;;4949014;28;20031;-76
2021/12/23 07:34:30;;;;;;;17.83;8.95;;;4.30;90.70;;;;;;4962598;28;20034;-76
2021/12/23 07:36:56;;;;;;;14.30;8.55;;;4.40;90.70;;;;;;4952037;28;20153;-76
2021/12/23 07:39:22;;;;;;;17.25;8.77;;;4.40;90.70;;;;;;4952755;28;20119;-76
2021/12/23 07:41:48;;;;;;;20.50;11.32;;;4.40;90.80;;;;;;4950828;28;20106;-77
2021/12/23 07:44:20;;;;;;;20.15;10.85;;;4.40;91.00;;;;;;4963215;28;20114;-77
2021/12/23 07:46:47;;;;;;;21.67;11.88;;;4.40;90.80;;;;;;4950604;28;20118;-77
2021/12/23 07:49:13;;;;;;;22.92;11.57;;;4.40;90.90;;;;;;4955135;28;20058;-77
2021/12/23 07:51:39;;;;;;;21.42;11.70;;;4.30;90.90;;;;;;4956173;28;20066;-77
2021/12/23 07:54:05;;;;;;;20.30;10.90;;;4.30;90.90;;;;;;4955962;28;20526;-76
2021/12/23 07:56:30;;;;;;;19.02;11.07;;;4.40;91.00;;;;;;4956006;28;20102;-77
2021/12/23 07:58:56;;;;;;;25.95;13.25;;;4.30;91.10;;;;;;4951359;28;20404;-77
2021/12/23 08:01:22;;;;;;;18.88;10.55;;;4.30;91.10;;;;;;4958315;28;20027;-77
2021/12/23 08:03:47;;;;;;;23.65;12.07;;;4.30;91.00;;;;;;4955165;28;20031;-77
2021/12/23 08:06:13;;;;;;;17.73;9.82;;;4.30;91.20;;;;;;4956442;28;20051;-77
2021/12/23 08:08:39;;;;;;;18.00;9.35;;;4.30;91.10;;;;;;4951556;28;20054;-77
2021/12/23 08:11:06;;;;;;;17.55;8.60;;;4.40;91.00;;;;;;4951183;28;20396;-77
2021/12/23 08:13:32;;;;;;;15.75;9.02;;;4.50;91.00;;;;;;4957299;28;20040;-77
2021/12/23 08:16:00;;;;;;;18.27;10.50;;;4.50;91.00;;;;;;4956519;28;20039;-77
2021/12/23 08:18:27;;;;;;;17.75;10.20;;;4.50;91.30;;;;;;4954813;28;20027;-75
2021/12/23 08:20:53;;;;;;;17.30;9.23;;;4.50;91.20;;;;;;4954745;28;20494;-76
2021/12/23 08:23:18;;;;;;;13.65;8.02;;;4.60;91.20;;;;;;4953929;28;20096;-67
2021/12/23 08:25:45;;;;;;;20.60;10.93;;;4.70;91.10;;;;;;4953848;28;20511;-65
2021/12/23 08:28:11;;;;;;;15.15;8.90;;;4.70;91.20;;;;;;4957653;28;20038;-64
2021/12/23 08:30:39;;;;;;;16.75;9.18;;;4.70;91.10;;;;;;4955755;28;20031;-63
2021/12/23 08:33:05;;;;;;;18.35;10.68;;;4.70;91.00;;;;;;4955430;28;20059;-63
2021/12/23 08:35:31;;;;;;;22.73;11.55;;;4.80;91.00;;;;;;4955608;28;20030;-63
2021/12/23 08:37:57;;;;;;;19.63;11.02;;;4.80;91.10;;;;;;4951434;28;20023;-63
2021/12/23 08:40:26;;;;;;;21.38;12.50;;;4.80;91.10;;;;;;4957426;28;20408;-64
2021/12/23 08:42:53;;;;;;;19.05;9.95;;;4.80;91.00;;;;;;4955618;28;20518;-64
2021/12/23 08:45:20;;;;;;;18.05;10.38;;;4.80;91.00;;;;;;4955509;28;20034;-66
2021/12/23 08:47:46;;;;;;;18.20;10.43;;;4.90;91.00;;;;;;4955566;28;20031;-65
2021/12/23 08:50:15;;;;;;;19.45;10.27;;;5.00;91.00;;;;;;4952829;28;20023;-65
2021/12/23 08:52:41;;;;;;;15.77;8.45;;;4.90;90.90;;;;;;4953569;28;20035;-64
2021/12/23 08:55:08;;;;;;;16.98;9.70;;;5.00;91.00;;;;;;4956762;28;20127;-64
2021/12/23 08:57:34;;;;;;;16.85;9.00;;;5.00;91.00;;;;;;4955342;28;20050;-64
2021/12/23 09:00:01;;;;;;;15.93;8.38;;;5.10;90.90;;;;;;4955410;28;20024;-65
2021/12/23 09:02:26;;;;;;;16.63;8.57;;;5.10;90.90;;;;;;4953095;28;20507;-65
2021/12/23 09:04:52;;;;;;;15.20;8.30;;;5.10;90.90;;;;;;4952004;28;20114;-65
2021/12/23 09:07:18;;;;;;;18.88;11.18;;;5.10;90.80;;;;;;4956998;28;20088;-68
2021/12/23 09:09:50;;;;;;;15.18;9.23;;;5.10;90.90;;;;;;4952178;28;20051;-68
2021/12/23 09:12:17;;;;;;;14.30;9.07;;;5.10;91.40;;;;;;4950237;28;20069;-67
2021/12/23 09:14:42;;;;;;;15.50;9.80;;;5.20;91.00;;;;;;4946190;28;20028;-68
2021/12/23 09:17:08;;;;;;;18.92;9.13;;;5.10;91.00;;;;;;4949390;28;20506;-67
2021/12/23 09:19:34;;;;;;;17.27;8.65;;;5.20;91.10;;;;;;4956968;28;20491;-68
2021/12/23 09:22:00;;;;;;;18.30;10.23;;;5.20;91.10;;;;;;4946769;29;20023;-66
2021/12/23 09:24:26;;;;;;;16.40;9.35;;;5.30;91.30;;;;;;4945796;28;20054;-67
2021/12/23 09:27:02;;;;;;;17.38;9.48;;;5.30;91.10;;;;;;4951360;28;20031;-65
2021/12/23 09:34:55;;;;;;;17.15;8.93;;;5.40;91.30;;;;;;4937354;29;20061;-65
2021/12/23 09:37:23;;;;;;;17.65;9.30;;;5.40;91.40;;;;;;4978351;28;20019;-65
2021/12/23 09:39:53;;;;;;;17.55;9.40;;;5.40;91.40;;;;;;4944164;28;20039;-65
2021/12/23 09:42:31;;;;;;;18.08;9.43;;;5.40;91.40;;;;;;4970924;28;20035;-66
2021/12/23 09:45:00;;;;;;;18.75;9.48;;;5.40;91.30;;;;;;4949166;28;20024;-65
2021/12/23 09:47:29;;;;;;;12.60;7.78;;;5.50;91.40;;;;;;4941199;28;20037;-65
2021/12/23 09:49:57;;;;;;;16.30;8.75;;;5.50;91.30;;;;;;4949694;28;20111;-66
2021/12/23 09:52:23;;;;;;;14.05;8.02;;;5.60;91.30;;;;;;4937051;29;20039;-66
2021/12/23 09:54:52;;;;;;;14.63;8.18;;;5.60;91.30;;;;;;4943772;28;20458;-64
2021/12/23 09:57:18;;;;;;;16.98;8.82;;;5.70;91.30;;;;;;4941873;29;20165;-64
2021/12/23 09:59:43;;;;;;;17.30;10.00;;;5.70;91.30;;;;;;4935862;29;20492;-64
2021/12/23 10:02:10;;;;;;;14.52;8.80;;;5.80;91.40;;;;;;4948802;28;20059;-64
2021/12/23 10:04:36;;;;;;;17.95;11.77;;;5.80;91.40;;;;;;4935402;29;20031;-64
2021/12/23 10:07:02;;;;;;;19.15;10.48;;;5.80;91.60;;;;;;4946287;28;20050;-64
2021/12/23 10:31:44;;;;;;;23.20;12.93;;;6.30;91.60;;;;;;5007372;28;20049;-64
2021/12/23 10:40:03;;;;;;;17.27;10.68;;;6.70;91.80;;;;;;5007406;28;20034;-64
2021/12/23 10:42:30;;;;;;;20.13;10.70;;;6.90;92.00;;;;;;5008854;28;20040;-64
2021/12/23 10:45:07;;;;;;;16.42;10.13;;;7.00;91.90;;;;;;5009241;28;20155;-64
2021/12/23 10:47:45;;;;;;;22.45;11.05;;;7.30;92.00;;;;;;5008959;28;20569;-64
2021/12/23 10:53:10;;;;;;;19.65;11.40;;;7.30;91.40;;;;;;5008591;28;20452;-64
2021/12/23 10:58:20;;;;;;;17.08;9.95;;;7.40;91.40;;;;;;4936822;29;20511;-64
2021/12/23 11:00:57;;;;;;;16.20;10.07;;;7.40;91.40;;;;;;4943244;28;20050;-64
2021/12/23 11:03:41;;;;;;;16.17;9.45;;;7.50;91.30;;;;;;4944156;28;20028;-65
2021/12/23 11:09:07;;;;;;;15.63;9.02;;;7.50;91.60;;;;;;4944512;28;20034;-64
2021/12/23 11:36:19;;;;;;;12.48;7.95;;;8.50;91.70;;;;;;4947882;29;20039;-65
2021/12/23 11:41:34;;;;;;;12.48;8.02;;;8.80;91.90;;;;;;4950502;29;20027;-64
2021/12/23 11:44:03;;;;;;;15.38;7.97;;;9.10;92.10;;;;;;4939405;28;20488;-64
2021/12/23 11:46:44;;;;;;;11.32;7.47;;;9.60;92.50;;;;;;4949600;29;20102;-64
2021/12/23 11:49:12;;;;;;;10.07;6.38;;;10.00;91.70;;;;;;4949499;29;20034;-65
2021/12/23 11:54:07;;;;;;;10.23;6.32;;;10.20;90.30;;;;;;4947289;28;20031;-64
2021/12/23 11:56:38;;;;;;;10.55;6.40;;;10.00;89.80;;;;;;4947567;28;20146;-64
2021/12/23 11:59:05;;;;;;;8.63;5.80;;;10.00;90.20;;;;;;4936394;28;20038;-66
2021/12/23 12:01:41;;;;;;;10.85;6.47;;;10.00;90.50;;;;;;4950128;28;20514;-65
2021/12/23 12:04:11;;;;;;;12.13;7.10;;;10.00;90.10;;;;;;4948967;28;20122;-66
2021/12/23 12:06:38;;;;;;;10.68;6.78;;;10.00;90.50;;;;;;4941996;28;20031;-64
2021/12/23 12:09:19;;;;;;;10.10;6.03;;;10.00;90.60;;;;;;4954247;28;20094;-65
2021/12/23 12:11:50;;;;;;;11.07;5.95;;;10.20;90.20;;;;;;4937633;28;20393;-66
2021/12/23 12:14:40;;;;;;;11.55;6.70;;;10.20;90.40;;;;;;4948850;28;20089;-65
2021/12/23 12:17:27;;;;;;;10.18;6.32;;;10.30;90.10;;;;;;4936088;28;20069;-65
2021/12/23 12:20:12;;;;;;;10.70;6.47;;;10.20;90.00;;;;;;4981614;28;20420;-64
2021/12/23 12:22:50;;;;;;;12.70;6.90;;;10.10;89.00;;;;;;4949605;28;20035;-64
2021/12/23 12:25:25;;;;;;;8.77;5.72;;;9.80;89.10;;;;;;4938555;29;20031;-64
2021/12/23 12:27:57;;;;;;;9.38;5.55;;;9.70;89.50;;;;;;4938954;28;20024;-64
2021/12/23 12:30:42;;;;;;;8.67;5.80;;;9.60;90.00;;;;;;4942321;28;20114;-65
2021/12/23 12:33:35;;;;;;;11.13;6.07;;;9.40;90.00;;;;;;4946571;28;20340;-64
2021/12/23 12:36:00;;;;;;;9.73;6.13;;;9.40;90.40;;;;;;4946231;28;20119;-65
2021/12/23 12:38:29;;;;;;;10.02;5.68;;;9.40;90.60;;;;;;4947340;28;20102;-64
2021/12/23 12:40:59;;;;;;;9.95;4.88;;;9.40;90.50;;;;;;4950353;28;20060;-64
2021/12/23 12:44:01;;;;;;;8.00;5.38;;;9.50;90.70;;;;;;4948549;28;20058;-64
2021/12/23 12:46:38;;;;;;;8.75;5.43;;;9.50;90.80;;;;;;4940430;28;20044;-64
2021/12/23 12:49:16;;;;;;;8.25;4.93;;;9.60;90.80;;;;;;4959745;28;20114;-64
2021/12/23 12:51:46;;;;;;;9.27;5.30;;;9.60;91.10;;;;;;4938567;28;20031;-64
2021/12/23 12:54:15;;;;;;;11.68;6.32;;;9.60;90.80;;;;;;4940677;28;20522;-64
2021/12/23 12:56:50;;;;;;;9.65;4.60;;;9.60;90.70;;;;;;4948213;28;20024;-64
2021/12/23 12:59:18;;;;;;;9.82;4.72;;;9.70;90.90;;;;;;4935948;28;20396;-64
2021/12/23 13:01:47;;;;;;;10.20;5.05;;;9.70;90.80;;;;;;4935343;28;20028;-64
2021/12/23 13:04:34;;;;;;;8.45;4.72;;;9.70;90.80;;;;;;4968949;28;20027;-65
2021/12/23 13:07:40;;;;;;;7.80;4.80;;;9.70;90.50;;;;;;4937452;28;20028;-65
2021/12/23 13:10:18;;;;;;;8.32;4.80;;;9.70;90.80;;;;;;5030860;28;20526;-65
2021/12/23 13:12:50;;;;;;;8.02;4.22;;;9.70;90.70;;;;;;5030321;28;20042;-65
2021/12/23 13:15:21;;;;;;;6.60;4.63;;;9.70;90.70;;;;;;5031001;28;20217;-65
2021/12/23 13:17:55;;;;;;;7.85;5.30;;;9.60;90.40;;;;;;5030800;28;20572;-65
2021/12/23 13:20:34;;;;;;;8.57;5.03;;;9.60;90.80;;;;;;5029154;28;20034;-65
2021/12/23 13:23:06;;;;;;;8.75;4.95;;;9.60;90.70;;;;;;5022016;28;20063;-65
2021/12/23 13:25:33;;;;;;;8.60;5.22;;;9.50;90.60;;;;;;5027630;28;20030;-65
2021/12/23 13:28:00;;;;;;;9.35;5.40;;;9.50;91.00;;;;;;5030296;28;20052;-65
2021/12/23 13:30:27;;;;;;;9.02;4.72;;;9.50;91.30;;;;;;5023193;28;20029;-65
2021/12/23 13:33:00;;;;;;;9.55;5.57;;;9.50;90.90;;;;;;5021967;28;20135;-65
2021/12/23 13:35:26;;;;;;;8.98;5.15;;;9.60;91.50;;;;;;5030642;28;20383;-65
2021/12/23 13:37:52;;;;;;;10.38;6.25;;;9.60;91.30;;;;;;5017968;28;20033;-65
2021/12/23 13:40:33;;;;;;;9.10;5.68;;;9.60;91.60;;;;;;5000360;28;20041;-65
2021/12/23 13:43:00;;;;;;;10.02;5.88;;;9.80;91.20;;;;;;5012521;28;20117;-65
2021/12/23 13:45:28;;;;;;;9.93;5.97;;;9.70;91.40;;;;;;4942481;28;20028;-65
2021/12/23 13:47:55;;;;;;;10.25;6.15;;;9.80;91.80;;;;;;4945288;28;20028;-65
2021/12/23 13:50:23;;;;;;;9.00;5.18;;;9.80;91.70;;;;;;4934680;28;20804;-65
2021/12/23 13:52:51;;;;;;;7.38;5.68;;;9.80;91.40;;;;;;4979464;28;20039;-65
2021/12/23 13:55:26;;;;;;;8.27;5.35;;;9.80;91.70;;;;;;4938413;28;20044;-65
2021/12/23 13:57:56;;;;;;;7.22;5.28;;;9.80;91.40;;;;;;4944953;28;20027;-65
2021/12/23 14:00:24;;;;;;;11.63;5.65;;;9.70;91.10;;;;;;4945217;28;20027;-65